createdAt,value
2022-08-20T00:00:02.370Z,81.68
2022-08-20T00:02:09.977Z,82.65
2022-08-20T00:04:15.003Z,82.83
2022-08-20T00:06:26.052Z,82.36
2022-08-20T00:08:32.153Z,82.91
2022-08-20T00:10:39.977Z,83.19
2022-08-20T00:12:47.594Z,83.23
2022-08-20T00:14:52.615Z,82.60
2022-08-20T00:16:57.551Z,82.92
2022-08-20T00:19:06.778Z,82.52
2022-08-20T00:21:18.916Z,82.82
2022-08-20T00:23:27.782Z,83.37
2022-08-20T00:25:32.957Z,83.29
2022-08-20T00:27:37.967Z,83.00
2022-08-20T00:29:42.785Z,82.92
2022-08-20T00:31:47.695Z,82.28
2022-08-20T00:33:53.464Z,82.49
2022-08-20T00:36:06.542Z,83.06
2022-08-20T00:38:11.650Z,82.90
2022-08-20T00:40:24.516Z,82.39
2022-08-20T00:42:29.507Z,82.36
2022-08-20T00:44:34.590Z,82.65
2022-08-20T00:46:39.737Z,82.48
2022-08-20T00:48:47.872Z,82.82
2022-08-20T00:50:53.030Z,82.62
2022-08-20T00:52:58.928Z,82.22
2022-08-20T00:55:05.917Z,82.79
2022-08-20T00:57:19.877Z,82.76
2022-08-20T00:59:28.419Z,82.54
2022-08-20T01:01:34.179Z,82.40
2022-08-20T01:03:58.330Z,82.70
2022-08-20T01:06:03.609Z,82.51
2022-08-20T01:08:09.422Z,82.55
2022-08-20T01:10:19.388Z,82.61
2022-08-20T01:12:28.033Z,82.29
2022-08-20T01:14:36.684Z,82.64
2022-08-20T01:16:41.677Z,82.25
2022-08-20T01:18:48.405Z,82.00
2022-08-20T01:20:57.184Z,82.20
2022-08-20T01:23:20.482Z,82.95
2022-08-20T01:25:34.355Z,82.75
2022-08-20T01:27:43.010Z,82.38
2022-08-20T01:29:49.125Z,82.77
2022-08-20T01:32:01.216Z,82.44
2022-08-20T01:34:08.388Z,82.54
2022-08-20T01:36:14.607Z,82.34
2022-08-20T01:38:20.240Z,82.06
2022-08-20T01:40:46.471Z,82.31
2022-08-20T01:42:59.479Z,82.22
2022-08-20T01:45:04.794Z,82.13
2022-08-20T01:47:16.946Z,82.62
2022-08-20T01:49:26.323Z,82.56
2022-08-20T01:51:33.096Z,82.38
2022-08-20T01:53:41.763Z,82.21
2022-08-20T01:55:46.747Z,82.27
2022-08-20T01:57:54.468Z,82.18
2022-08-20T01:59:59.364Z,81.69
2022-08-20T02:02:05.518Z,81.81
2022-08-20T02:04:15.178Z,81.58
2022-08-20T02:06:25.055Z,81.55
2022-08-20T02:08:31.181Z,81.78
2022-08-20T02:10:37.287Z,82.13
2022-08-20T02:12:42.435Z,81.85
2022-08-20T02:14:53.925Z,81.82
2022-08-20T02:17:00.627Z,81.64
2022-08-20T02:19:09.515Z,81.72
2022-08-20T02:21:14.439Z,81.89
2022-08-20T02:23:19.272Z,82.02
2022-08-20T02:25:27.153Z,81.84
2022-08-20T02:27:33.447Z,81.97
2022-08-20T02:29:39.755Z,81.83
2022-08-20T02:32:24.405Z,81.37
2022-08-20T02:34:22.864Z,81.69
2022-08-20T02:36:28.352Z,81.61
2022-08-20T02:38:35.029Z,81.59
2022-08-20T02:40:40.675Z,81.33
2022-08-20T02:42:47.892Z,81.72
2022-08-20T02:44:54.154Z,81.49
2022-08-20T02:47:01.749Z,81.55
2022-08-20T02:49:07.140Z,81.22
2022-08-20T02:51:12.543Z,81.36
2022-08-20T02:53:17.867Z,81.72
2022-08-20T02:55:27.032Z,81.56
2022-08-20T02:57:33.328Z,81.16
2022-08-20T02:59:38.930Z,80.89
2022-08-20T03:01:43.799Z,81.33
2022-08-20T03:03:51.303Z,81.85
2022-08-20T03:05:58.660Z,81.29
2022-08-20T03:08:03.544Z,81.67
2022-08-20T03:10:09.361Z,81.77
2022-08-20T03:12:14.761Z,81.16
2022-08-20T03:14:19.822Z,81.64
2022-08-20T03:16:24.634Z,81.12
2022-08-20T03:18:32.407Z,81.42
2022-08-20T03:20:40.145Z,81.62
2022-08-20T03:22:45.902Z,81.47
2022-08-20T03:24:50.745Z,81.40
2022-08-20T03:26:58.819Z,81.43
2022-08-20T03:29:03.688Z,81.46
2022-08-20T03:31:08.804Z,81.64
2022-08-20T03:33:13.674Z,81.51
2022-08-20T03:35:20.918Z,81.81
2022-08-20T03:37:28.353Z,81.72
2022-08-20T03:39:33.379Z,81.11
2022-08-20T03:41:38.651Z,81.59
2022-08-20T03:43:43.642Z,81.33
2022-08-20T03:45:49.622Z,80.98
2022-08-20T03:47:55.400Z,81.00
2022-08-20T03:50:01.749Z,80.69
2022-08-20T03:52:07.890Z,80.69
2022-08-20T03:54:20.351Z,80.95
2022-08-20T03:56:25.245Z,80.58
2022-08-20T03:58:35.415Z,80.66
2022-08-20T04:00:44.529Z,80.46
2022-08-20T04:02:49.577Z,80.84
2022-08-20T04:04:55.186Z,80.87
2022-08-20T04:07:00.027Z,80.86
2022-08-20T04:09:04.958Z,80.70
2022-08-20T04:11:13.515Z,81.00
2022-08-20T04:13:20.845Z,80.97
2022-08-20T04:15:28.485Z,80.58
2022-08-20T04:17:33.574Z,80.74
2022-08-20T04:19:39.006Z,80.87
2022-08-20T04:21:43.863Z,80.72
2022-08-20T04:23:48.705Z,80.60
2022-08-20T04:25:56.646Z,81.41
2022-08-20T04:28:06.229Z,81.17
2022-08-20T04:30:14.386Z,81.32
2022-08-20T04:32:19.318Z,81.09
2022-08-20T04:34:24.363Z,81.05
2022-08-20T04:36:29.535Z,81.34
2022-08-20T04:38:50.467Z,81.76
2022-08-20T04:40:58.340Z,81.34
2022-08-20T04:43:06.829Z,80.95
2022-08-20T04:45:12.609Z,80.85
2022-08-20T04:47:24.674Z,81.00
2022-08-20T04:49:40.890Z,80.72
2022-08-20T04:51:45.773Z,80.94
2022-08-20T04:53:51.930Z,80.94
2022-08-20T04:55:58.904Z,80.93
2022-08-20T04:58:10.839Z,81.08
2022-08-20T05:00:19.516Z,80.78
2022-08-20T05:02:25.373Z,80.41
2022-08-20T05:04:30.217Z,80.60
2022-08-20T05:06:35.557Z,80.54
2022-08-20T05:08:41.313Z,80.58
2022-08-20T05:10:47.034Z,80.59
2022-08-20T05:12:56.498Z,80.33
2022-08-20T05:15:04.943Z,80.04
2022-08-20T05:17:10.156Z,80.44
2022-08-20T05:19:16.003Z,80.39
2022-08-20T05:21:21.107Z,80.63
2022-08-20T05:23:25.699Z,80.37
2022-08-20T05:25:32.080Z,80.81
2022-08-20T05:27:37.033Z,80.75
2022-08-20T05:29:42.201Z,80.54
2022-08-20T05:31:49.353Z,80.75
2022-08-20T05:33:56.954Z,80.43
2022-08-20T05:36:02.418Z,80.48
2022-08-20T05:38:07.845Z,80.68
2022-08-20T05:40:16.478Z,80.38
2022-08-20T05:42:21.494Z,80.34
2022-08-20T05:44:26.371Z,79.83
2022-08-20T05:46:32.068Z,80.10
2022-08-20T05:48:39.689Z,79.98
2022-08-20T05:50:46.885Z,79.43
2022-08-20T05:52:51.712Z,79.67
2022-08-20T05:54:56.828Z,79.18
2022-08-20T05:57:01.441Z,79.09
2022-08-20T05:59:08.607Z,79.33
2022-08-20T06:01:13.521Z,78.80
2022-08-20T06:03:31.106Z,79.36
2022-08-20T06:05:38.685Z,78.53
2022-08-20T06:07:43.929Z,78.82
2022-08-20T06:09:48.809Z,79.01
2022-08-20T06:11:53.559Z,78.22
2022-08-20T06:14:03.987Z,78.68
2022-08-20T06:16:09.310Z,78.19
2022-08-20T06:18:28.451Z,78.95
2022-08-20T06:20:33.827Z,78.66
2022-08-20T06:22:41.389Z,78.45
2022-08-20T06:24:46.516Z,77.54
2022-08-20T06:26:51.204Z,78.07
2022-08-20T06:28:56.274Z,77.98
2022-08-20T06:31:01.121Z,79.13
2022-08-20T06:33:06.260Z,78.33
2022-08-20T06:35:11.700Z,77.04
2022-08-20T06:37:18.769Z,77.26
2022-08-20T06:39:27.055Z,75.51
2022-08-20T06:41:37.049Z,75.84
2022-08-20T06:43:42.077Z,75.02
2022-08-20T06:45:46.997Z,74.45
2022-08-20T06:47:51.923Z,73.12
2022-08-20T06:49:56.851Z,73.38
2022-08-20T06:52:01.702Z,73.38
2022-08-20T06:54:07.238Z,72.67
2022-08-20T06:56:14.633Z,72.04
2022-08-20T06:58:36.238Z,71.78
2022-08-20T07:00:44.656Z,72.13
2022-08-20T07:02:49.772Z,72.88
2022-08-20T07:04:55.521Z,72.44
2022-08-20T07:07:00.454Z,72.31
2022-08-20T07:09:05.369Z,72.44
2022-08-20T07:11:10.385Z,72.92
2022-08-20T07:13:18.358Z,72.28
2022-08-20T07:15:25.943Z,72.38
2022-08-20T07:17:30.906Z,71.99
2022-08-20T07:19:36.077Z,72.44
2022-08-20T07:21:40.733Z,70.76
2022-08-20T07:23:46.019Z,71.46
2022-08-20T07:25:51.358Z,70.91
2022-08-20T07:27:56.344Z,71.31
2022-08-20T07:30:16.198Z,70.35
2022-08-20T07:32:39.606Z,69.27
2022-08-20T07:34:46.583Z,69.17
2022-08-20T07:36:53.224Z,69.17
2022-08-20T07:39:05.865Z,67.20
2022-08-20T07:41:15.004Z,66.99
2022-08-20T07:43:21.602Z,66.22
2022-08-20T07:45:29.872Z,64.88
2022-08-20T07:47:36.256Z,65.09
2022-08-20T07:49:41.757Z,64.67
2022-08-20T07:51:47.142Z,64.81
2022-08-20T07:53:54.302Z,64.92
2022-08-20T07:56:00.307Z,65.62
2022-08-20T07:58:13.487Z,66.08
2022-08-20T08:00:21.290Z,65.88
2022-08-20T08:02:29.259Z,65.45
2022-08-20T08:04:34.730Z,66.00
2022-08-20T08:06:45.508Z,65.62
2022-08-20T08:08:50.818Z,66.40
2022-08-20T08:11:00.628Z,67.06
2022-08-20T08:13:08.563Z,66.95
2022-08-20T08:15:17.745Z,66.58
2022-08-20T08:17:22.726Z,65.96
2022-08-20T08:19:38.945Z,65.65
2022-08-20T08:21:44.481Z,66.98
2022-08-20T08:23:50.321Z,67.57
2022-08-20T08:25:56.292Z,66.70
2022-08-20T08:28:03.333Z,66.29
2022-08-20T08:30:10.153Z,67.62
2022-08-20T08:32:15.543Z,67.38
2022-08-20T08:34:20.159Z,66.02
2022-08-20T08:36:27.940Z,65.48
2022-08-20T08:38:34.429Z,66.34
2022-08-20T08:40:39.321Z,66.20
2022-08-20T08:42:58.377Z,65.79
2022-08-20T08:45:04.747Z,65.23
2022-08-20T08:47:18.438Z,64.56
2022-08-20T08:49:37.566Z,63.56
2022-08-20T08:51:50.264Z,63.52
2022-08-20T08:53:57.306Z,62.79
2022-08-20T08:56:02.953Z,62.75
2022-08-20T08:58:17.353Z,62.70
2022-08-20T09:00:24.992Z,62.36
2022-08-20T09:02:31.592Z,60.80
2022-08-20T09:04:40.573Z,60.80
2022-08-20T09:06:52.041Z,61.00
2022-08-20T09:09:01.138Z,61.04
2022-08-20T09:11:07.627Z,59.95
2022-08-20T09:13:12.444Z,60.12
2022-08-20T09:15:17.349Z,60.39
2022-08-20T09:17:24.130Z,60.28
2022-08-20T09:19:29.076Z,59.92
2022-08-20T09:21:33.977Z,59.25
2022-08-20T09:23:41.503Z,57.73
2022-08-20T09:25:46.415Z,57.31
2022-08-20T09:27:51.054Z,58.26
2022-08-20T09:29:56.106Z,58.25
2022-08-20T09:32:07.793Z,56.98
2022-08-20T09:34:14.109Z,57.16
2022-08-20T09:36:29.037Z,57.11
2022-08-20T09:38:37.576Z,56.83
2022-08-20T09:40:45.092Z,56.53
2022-08-20T09:42:50.160Z,56.66
2022-08-20T09:44:55.628Z,56.21
2022-08-20T09:47:00.499Z,56.57
2022-08-20T09:49:05.401Z,56.34
2022-08-20T09:51:13.812Z,56.34
2022-08-20T09:53:19.048Z,56.77
2022-08-20T09:55:27.582Z,56.23
2022-08-20T09:57:35.330Z,57.26
2022-08-20T09:59:41.914Z,57.17
2022-08-20T10:01:47.013Z,56.16
2022-08-20T10:03:52.718Z,56.74
2022-08-20T10:05:57.608Z,57.01
2022-08-20T10:08:02.537Z,57.29
2022-08-20T10:10:08.052Z,57.43
2022-08-20T10:12:12.937Z,57.41
2022-08-20T10:14:20.488Z,57.25
2022-08-20T10:16:25.330Z,57.67
2022-08-20T10:18:30.284Z,57.72
2022-08-20T10:20:35.743Z,57.16
2022-08-20T10:22:40.971Z,57.42
2022-08-20T10:24:45.991Z,57.04
2022-08-20T10:26:52.258Z,56.36
2022-08-20T10:28:57.111Z,56.03
2022-08-20T10:31:04.795Z,55.62
2022-08-20T10:33:09.680Z,55.37
2022-08-20T10:35:14.556Z,53.78
2022-08-20T10:37:21.492Z,53.29
2022-08-20T10:39:26.512Z,53.26
2022-08-20T10:41:39.051Z,54.26
2022-08-20T10:43:44.232Z,54.03
2022-08-20T10:45:48.808Z,54.42
2022-08-20T10:47:56.354Z,53.98
2022-08-20T10:50:03.252Z,53.38
2022-08-20T10:52:08.593Z,52.70
2022-08-20T10:54:13.560Z,52.81
2022-08-20T10:56:18.388Z,53.22
2022-08-20T10:58:24.141Z,52.93
2022-08-20T11:00:29.357Z,52.79
2022-08-20T11:02:34.158Z,52.38
2022-08-20T11:04:43.634Z,52.50
2022-08-20T11:06:48.505Z,52.60
2022-08-20T11:08:53.136Z,52.73
2022-08-20T11:10:57.924Z,52.33
2022-08-20T11:13:03.088Z,51.86
2022-08-20T11:15:09.242Z,51.93
2022-08-20T11:17:15.126Z,51.65
2022-08-20T11:19:19.937Z,51.57
2022-08-20T11:21:27.424Z,51.42
2022-08-20T11:23:32.237Z,51.83
2022-08-20T11:25:38.219Z,52.29
2022-08-20T11:27:46.514Z,51.73
2022-08-20T11:29:51.655Z,52.16
2022-08-20T11:31:56.531Z,51.00
2022-08-20T11:34:01.105Z,51.13
2022-08-20T11:36:06.336Z,50.56
2022-08-20T11:38:14.099Z,50.34
2022-08-20T11:40:19.091Z,49.95
2022-08-20T11:42:23.972Z,49.32
2022-08-20T11:44:28.794Z,49.21
2022-08-20T11:46:33.685Z,49.18
2022-08-20T11:48:38.583Z,48.84
2022-08-20T11:50:43.653Z,48.62
2022-08-20T11:52:48.259Z,48.24
2022-08-20T11:54:55.751Z,48.51
2022-08-20T11:57:01.116Z,49.39
2022-08-20T11:59:05.995Z,49.65
2022-08-20T12:01:10.874Z,49.95
2022-08-20T12:03:15.553Z,49.33
2022-08-20T12:05:21.247Z,48.60
2022-08-20T12:07:28.312Z,47.89
2022-08-20T12:09:33.139Z,47.80
2022-08-20T12:11:40.623Z,48.13
2022-08-20T12:13:47.323Z,48.81
2022-08-20T12:15:53.481Z,48.07
2022-08-20T12:17:58.965Z,48.33
2022-08-20T12:20:07.250Z,47.59
2022-08-20T12:22:23.719Z,48.15
2022-08-20T12:24:29.961Z,47.50
2022-08-20T12:26:34.772Z,47.20
2022-08-20T12:28:42.643Z,48.19
2022-08-20T12:30:47.479Z,49.13
2022-08-20T12:32:53.076Z,49.21
2022-08-20T12:34:58.355Z,50.12
2022-08-20T12:37:05.276Z,52.69
2022-08-20T12:39:10.276Z,53.86
2022-08-20T12:41:14.923Z,54.65
2022-08-20T12:43:24.660Z,55.61
2022-08-20T12:45:33.009Z,55.96
2022-08-20T12:47:39.772Z,56.24
2022-08-20T12:49:46.409Z,55.48
2022-08-20T12:51:51.321Z,56.47
2022-08-20T12:53:56.295Z,56.57
2022-08-20T12:56:02.590Z,57.91
2022-08-20T12:58:10.494Z,59.14
2022-08-20T13:00:20.395Z,60.71
2022-08-20T13:02:29.031Z,61.63
2022-08-20T13:04:33.856Z,62.02
2022-08-20T13:06:38.869Z,62.07
2022-08-20T13:08:43.754Z,61.99
2022-08-20T13:10:48.562Z,62.13
2022-08-20T13:12:54.236Z,62.44
2022-08-20T13:14:59.120Z,62.36
2022-08-20T13:17:05.062Z,63.08
2022-08-20T13:19:14.155Z,62.10
2022-08-20T13:21:23.903Z,62.27
2022-08-20T13:23:29.022Z,60.98
2022-08-20T13:25:34.771Z,60.85
2022-08-20T13:27:40.616Z,60.97
2022-08-20T13:29:50.949Z,59.46
2022-08-20T13:31:57.951Z,58.27
2022-08-20T13:34:02.923Z,56.34
2022-08-20T13:36:10.501Z,55.08
2022-08-20T13:38:15.860Z,55.73
2022-08-20T13:40:21.396Z,53.85
2022-08-20T13:42:26.586Z,54.29
2022-08-20T13:44:33.021Z,53.81
2022-08-20T13:46:38.233Z,53.38
2022-08-20T13:48:43.140Z,53.88
2022-08-20T13:50:48.061Z,53.43
2022-08-20T13:52:56.330Z,54.27
2022-08-20T13:55:01.765Z,53.84
2022-08-20T13:57:13.705Z,54.33
2022-08-20T13:59:18.552Z,55.04
2022-08-20T14:01:23.266Z,55.10
2022-08-20T14:03:28.113Z,55.74
2022-08-20T14:05:34.117Z,56.30
2022-08-20T14:07:39.228Z,56.20
2022-08-20T14:09:50.008Z,57.05
2022-08-20T14:11:54.959Z,56.48
2022-08-20T14:13:59.810Z,57.02
2022-08-20T14:16:04.635Z,57.08
2022-08-20T14:18:10.173Z,57.83
2022-08-20T14:20:18.543Z,58.83
2022-08-20T14:22:23.657Z,59.72
2022-08-20T14:24:28.558Z,61.42
2022-08-20T14:26:36.041Z,61.11
2022-08-20T14:28:40.867Z,61.11
2022-08-20T14:30:46.559Z,61.27
2022-08-20T14:32:58.115Z,62.29
2022-08-20T14:35:03.053Z,61.32
2022-08-20T14:37:19.265Z,61.53
2022-08-20T14:39:26.657Z,61.50
2022-08-20T14:41:31.470Z,61.87
2022-08-20T14:43:38.924Z,61.07
2022-08-20T14:45:44.269Z,59.26
2022-08-20T14:47:53.863Z,58.35
2022-08-20T14:50:04.759Z,57.74
2022-08-20T14:52:09.884Z,57.22
2022-08-20T14:54:14.817Z,57.28
2022-08-20T14:56:20.002Z,56.41
2022-08-20T14:58:24.834Z,55.93
2022-08-20T15:00:34.766Z,55.68
2022-08-20T15:02:40.487Z,55.70
2022-08-20T15:04:52.265Z,55.64
2022-08-20T15:07:02.191Z,55.64
2022-08-20T15:09:15.937Z,55.09
2022-08-20T15:11:20.781Z,55.08
2022-08-20T15:13:25.609Z,54.69
2022-08-20T15:15:31.287Z,54.74
2022-08-20T15:17:38.766Z,54.55
2022-08-20T15:19:43.772Z,54.81
2022-08-20T15:21:48.704Z,54.75
2022-08-20T15:23:53.238Z,54.95
2022-08-20T15:25:58.160Z,54.87
2022-08-20T15:28:04.811Z,55.25
2022-08-20T15:30:13.124Z,55.80
2022-08-20T15:32:18.306Z,55.88
2022-08-20T15:34:25.783Z,55.52
2022-08-20T15:36:30.624Z,56.08
2022-08-20T15:38:35.785Z,56.50
2022-08-20T15:40:40.661Z,57.23
2022-08-20T15:42:46.546Z,57.91
2022-08-20T15:44:52.357Z,59.36
2022-08-20T15:46:57.261Z,60.37
2022-08-20T15:49:01.957Z,61.03
2022-08-20T15:51:23.706Z,61.21
2022-08-20T15:53:36.387Z,62.07
2022-08-20T15:56:00.414Z,62.04
2022-08-20T15:58:16.995Z,62.91
2022-08-20T16:00:24.334Z,62.83
2022-08-20T16:02:55.161Z,62.84
2022-08-20T16:05:17.280Z,63.32
2022-08-20T16:07:32.205Z,61.89
2022-08-20T16:09:56.432Z,61.08
2022-08-20T16:12:08.682Z,58.79
2022-08-20T16:14:18.729Z,56.67
2022-08-20T16:16:28.518Z,54.43
2022-08-20T16:18:37.601Z,53.73
2022-08-20T16:20:47.970Z,53.84
2022-08-20T16:22:55.735Z,53.94
2022-08-20T16:25:01.698Z,54.25
2022-08-20T16:27:17.281Z,54.27
2022-08-20T16:29:22.781Z,53.88
2022-08-20T16:31:33.523Z,53.74
2022-08-20T16:33:52.882Z,54.16
2022-08-20T16:36:02.221Z,54.02
2022-08-20T16:38:21.360Z,53.88
2022-08-20T16:40:30.220Z,54.06
2022-08-20T16:42:41.244Z,54.17
2022-08-20T16:44:51.111Z,54.29
2022-08-20T16:47:00.676Z,53.72
2022-08-20T16:49:18.593Z,53.82
2022-08-20T16:51:28.229Z,54.27
2022-08-20T16:53:35.956Z,54.33
2022-08-20T16:55:42.119Z,54.00
2022-08-20T16:57:47.873Z,54.21
2022-08-20T17:00:13.379Z,53.91
2022-08-20T17:02:22.451Z,54.61
2022-08-20T17:04:27.284Z,54.29
2022-08-20T17:06:38.304Z,54.61
2022-08-20T17:08:51.624Z,54.50
2022-08-20T17:11:01.374Z,54.21
2022-08-20T17:13:22.225Z,54.42
2022-08-20T17:15:31.284Z,54.43
2022-08-20T17:17:38.445Z,54.30
2022-08-20T17:19:43.315Z,54.36
2022-08-20T17:21:50.218Z,54.42
2022-08-20T17:24:01.671Z,54.41
2022-08-20T17:26:19.523Z,54.54
2022-08-20T17:28:26.037Z,54.77
2022-08-20T17:30:39.646Z,54.81
2022-08-20T17:32:57.419Z,55.25
2022-08-20T17:35:05.422Z,55.38
2022-08-20T17:37:13.563Z,56.19
2022-08-20T17:39:23.115Z,57.08
2022-08-20T17:41:32.272Z,58.02
2022-08-20T17:43:43.398Z,58.77
2022-08-20T17:45:48.970Z,59.97
2022-08-20T17:47:54.603Z,60.34
2022-08-20T17:50:04.381Z,60.74
2022-08-20T17:52:18.987Z,60.99
2022-08-20T17:54:35.445Z,60.75
2022-08-20T17:56:43.690Z,61.55
2022-08-20T17:58:54.862Z,61.21
2022-08-20T18:01:02.255Z,60.87
2022-08-20T18:03:17.599Z,61.51
2022-08-20T18:05:24.577Z,60.99
2022-08-20T18:07:33.967Z,61.21
2022-08-20T18:09:46.663Z,61.32
2022-08-20T18:11:59.034Z,61.73
2022-08-20T18:14:29.532Z,60.71
2022-08-20T18:16:45.641Z,60.93
2022-08-20T18:18:59.316Z,60.22
2022-08-20T18:21:34.406Z,59.87
2022-08-20T18:23:41.507Z,60.14
2022-08-20T18:26:00.683Z,60.04
2022-08-20T18:28:11.485Z,61.47
2022-08-20T18:30:20.293Z,62.33
2022-08-20T18:32:34.271Z,62.84
2022-08-20T18:34:42.192Z,62.87
2022-08-20T18:36:57.179Z,63.23
2022-08-20T18:39:09.623Z,63.01
2022-08-20T18:41:31.878Z,63.01
2022-08-20T18:43:36.741Z,62.49
2022-08-20T18:45:41.677Z,62.77
2022-08-20T18:47:49.152Z,62.72
2022-08-20T18:50:15.773Z,62.25
2022-08-20T18:52:30.358Z,62.67
2022-08-20T18:54:35.905Z,61.73
2022-08-20T18:56:45.599Z,61.64
2022-08-20T18:59:00.539Z,61.31
2022-08-20T19:01:13.239Z,61.75
2022-08-20T19:03:23.135Z,62.10
2022-08-20T19:05:31.934Z,62.07
2022-08-20T19:07:43.155Z,62.10
2022-08-20T19:10:27.704Z,62.03
2022-08-20T19:13:08.724Z,62.17
2022-08-20T19:15:19.083Z,62.69
2022-08-20T19:17:33.706Z,62.79
2022-08-20T19:19:39.421Z,63.05
2022-08-20T19:21:44.996Z,63.48
2022-08-20T19:23:55.079Z,63.63
2022-08-20T19:26:02.985Z,63.64
2022-08-20T19:28:24.055Z,63.90
2022-08-20T19:30:35.329Z,63.69
2022-08-20T19:32:46.309Z,63.55
2022-08-20T19:34:54.850Z,63.13
2022-08-20T19:37:07.778Z,63.74
2022-08-20T19:39:18.895Z,63.40
2022-08-20T19:41:31.483Z,63.37
2022-08-20T19:43:45.239Z,63.40
2022-08-20T19:45:52.989Z,63.48
2022-08-20T19:48:08.232Z,63.42
2022-08-20T19:50:23.942Z,63.73
2022-08-20T19:52:36.035Z,63.84
2022-08-20T19:54:49.838Z,63.26
2022-08-20T19:56:58.530Z,63.59
2022-08-20T19:59:09.319Z,63.70
2022-08-20T20:01:19.807Z,63.68
2022-08-20T20:03:28.715Z,63.70
2022-08-20T20:05:33.909Z,63.45
2022-08-20T20:07:42.098Z,63.22
2022-08-20T20:09:56.246Z,63.00
2022-08-20T20:12:02.949Z,63.11
2022-08-20T20:14:14.558Z,63.30
2022-08-20T20:16:22.552Z,63.58
2022-08-20T20:18:30.727Z,63.90
2022-08-20T20:20:38.567Z,63.84
2022-08-20T20:23:06.773Z,63.80
2022-08-20T20:25:22.646Z,64.17
2022-08-20T20:27:29.524Z,64.55
2022-08-20T20:29:40.095Z,64.67
2022-08-20T20:31:52.178Z,64.59
2022-08-20T20:33:59.693Z,64.75
2022-08-20T20:36:06.855Z,64.65
2022-08-20T20:38:17.312Z,64.59
2022-08-20T20:40:28.118Z,64.58
2022-08-20T20:42:33.233Z,64.39
2022-08-20T20:44:41.701Z,64.14
2022-08-20T20:46:50.892Z,64.54
2022-08-20T20:48:58.255Z,64.82
2022-08-20T20:51:03.683Z,65.33
2022-08-20T20:53:08.622Z,65.34
2022-08-20T20:55:24.239Z,65.62
2022-08-20T20:57:36.448Z,65.93
2022-08-20T20:59:48.371Z,65.90
2022-08-20T21:01:53.403Z,66.80
2022-08-20T21:03:58.032Z,66.75
2022-08-20T21:06:02.910Z,66.70
2022-08-20T21:08:10.836Z,66.61
2022-08-20T21:10:16.333Z,66.67
2022-08-20T21:12:22.569Z,66.57
2022-08-20T21:14:27.417Z,66.81
2022-08-20T21:16:35.493Z,66.61
2022-08-20T21:18:41.119Z,66.48
2022-08-20T21:20:47.451Z,66.75
2022-08-20T21:22:52.491Z,66.21
2022-08-20T21:24:57.522Z,66.09
2022-08-20T21:27:04.040Z,66.53
2022-08-20T21:29:11.152Z,66.33
2022-08-20T21:31:16.135Z,65.93
2022-08-20T21:33:23.586Z,66.27
2022-08-20T21:35:28.885Z,66.11
2022-08-20T21:37:33.803Z,66.12
2022-08-20T21:39:38.662Z,65.98
2022-08-20T21:41:44.976Z,66.17
2022-08-20T21:43:49.827Z,65.97
2022-08-20T21:45:54.833Z,65.74
2022-08-20T21:48:01.244Z,65.74
2022-08-20T21:50:11.268Z,66.33
2022-08-20T21:52:16.690Z,66.44
2022-08-20T21:54:22.705Z,66.16
2022-08-20T21:56:27.625Z,66.32
2022-08-20T21:58:36.947Z,66.23
2022-08-20T22:00:58.214Z,66.14
2022-08-20T22:03:03.151Z,66.40
2022-08-20T22:05:11.511Z,67.08
2022-08-20T22:07:17.802Z,67.65
2022-08-20T22:09:24.887Z,67.62
2022-08-20T22:11:30.553Z,68.23
2022-08-20T22:13:36.862Z,68.75
2022-08-20T22:15:42.008Z,68.42
2022-08-20T22:17:46.638Z,68.92
2022-08-20T22:19:51.581Z,69.35
2022-08-20T22:21:59.531Z,69.62
2022-08-20T22:24:07.377Z,69.61
2022-08-20T22:26:13.135Z,70.26
2022-08-20T22:28:21.409Z,70.17
2022-08-20T22:30:30.390Z,70.14
2022-08-20T22:32:51.785Z,70.94
2022-08-20T22:34:57.139Z,70.94
2022-08-20T22:37:05.445Z,70.76
2022-08-20T22:39:11.016Z,71.20
2022-08-20T22:41:15.877Z,71.94
2022-08-20T22:43:21.841Z,72.17
2022-08-20T22:45:29.837Z,72.17
2022-08-20T22:47:34.646Z,72.49
2022-08-20T22:49:42.046Z,72.75
2022-08-20T22:51:47.587Z,73.24
2022-08-20T22:53:58.023Z,73.56
2022-08-20T22:56:03.014Z,73.75
2022-08-20T22:58:08.690Z,74.40
2022-08-20T23:00:21.069Z,75.06
2022-08-20T23:02:29.341Z,75.13
2022-08-20T23:04:37.768Z,74.92
2022-08-20T23:06:43.427Z,74.90
2022-08-20T23:08:48.340Z,74.73
2022-08-20T23:10:56.769Z,75.12
2022-08-20T23:13:01.677Z,75.55
2022-08-20T23:15:06.643Z,75.66
2022-08-20T23:17:17.664Z,75.65
2022-08-20T23:19:24.810Z,75.52
2022-08-20T23:21:30.012Z,76.18
2022-08-20T23:23:34.608Z,76.19
2022-08-20T23:25:39.496Z,76.84
2022-08-20T23:27:49.724Z,76.57
2022-08-20T23:29:54.551Z,76.54
2022-08-20T23:32:00.719Z,76.46
2022-08-20T23:34:05.611Z,76.54
2022-08-20T23:36:13.532Z,76.29
2022-08-20T23:38:24.197Z,75.79
2022-08-20T23:40:31.310Z,75.53
2022-08-20T23:42:36.359Z,75.70
2022-08-20T23:44:43.645Z,75.61
2022-08-20T23:46:49.233Z,75.51
2022-08-20T23:48:57.459Z,75.75
2022-08-20T23:51:02.443Z,75.68
2022-08-20T23:53:08.231Z,76.03
2022-08-20T23:55:13.396Z,76.04
2022-08-20T23:57:21.047Z,76.37
2022-08-20T23:59:26.062Z,76.64
